createdAt,value
2019-05-10T00:00:15.036Z,-67
2019-05-10T00:01:12.472Z,-67
2019-05-10T00:02:16.278Z,-67
2019-05-10T00:03:16.255Z,-67
2019-05-10T00:04:13.827Z,-66
2019-05-10T00:05:13.361Z,-67
2019-05-10T00:06:13.157Z,-67
2019-05-10T00:07:11.136Z,-67
2019-05-10T00:08:10.539Z,-66
2019-05-10T00:09:13.847Z,-66
2019-05-10T00:10:17.116Z,-66
2019-05-10T00:11:14.899Z,-67
2019-05-10T00:12:17.310Z,-67
2019-05-10T00:13:15.423Z,-66
2019-05-10T00:14:13.904Z,-66
2019-05-10T00:15:12.217Z,-66
2019-05-10T00:16:11.736Z,-66
2019-05-10T00:17:10.431Z,-67
2019-05-10T00:18:11.127Z,-67
2019-05-10T00:19:09.343Z,-67
2019-05-10T00:20:07.637Z,-67
2019-05-10T00:21:05.550Z,-66
2019-05-10T00:22:03.424Z,-67
2019-05-10T00:23:00.957Z,-67
2019-05-10T00:24:03.693Z,-66
2019-05-10T00:25:04.849Z,-67
2019-05-10T00:26:00.915Z,-67
2019-05-10T00:26:59.326Z,-67
2019-05-10T00:27:58.136Z,-67
2019-05-10T00:28:55.817Z,-67
2019-05-10T00:29:53.511Z,-67
2019-05-10T00:30:56.574Z,-67
2019-05-10T00:31:56.947Z,-67
2019-05-10T00:32:55.351Z,-67
2019-05-10T00:33:53.691Z,-67
2019-05-10T00:34:52.076Z,-67
2019-05-10T00:35:50.366Z,-67
2019-05-10T00:36:51.576Z,-67
2019-05-10T00:37:49.014Z,-67
2019-05-10T00:38:47.949Z,-67
2019-05-10T00:39:49.611Z,-67
2019-05-10T00:40:48.124Z,-67
2019-05-10T00:41:46.242Z,-66
2019-05-10T00:42:46.488Z,-67
2019-05-10T00:43:44.321Z,-67
2019-05-10T00:44:41.928Z,-67
2019-05-10T00:45:42.180Z,-67
2019-05-10T00:46:39.657Z,-67
2019-05-10T00:47:38.584Z,-67
2019-05-10T00:48:37.185Z,-67
2019-05-10T00:49:35.631Z,-66
2019-05-10T00:50:33.501Z,-67
2019-05-10T00:51:31.569Z,-67
2019-05-10T00:52:29.998Z,-67
2019-05-10T00:53:28.676Z,-67
2019-05-10T00:54:33.122Z,-67
2019-05-10T00:55:33.719Z,-67
2019-05-10T00:56:32.067Z,-67
2019-05-10T00:57:29.567Z,-66
2019-05-10T00:58:29.283Z,-67
2019-05-10T00:59:33.147Z,-67
2019-05-10T01:00:31.271Z,-67
2019-05-10T01:01:30.529Z,-66
2019-05-10T01:02:31.960Z,-67
2019-05-10T01:03:31.078Z,-67
2019-05-10T01:04:29.837Z,-66
2019-05-10T01:05:27.784Z,-67
2019-05-10T01:06:28.571Z,-67
2019-05-10T01:07:40.224Z,-67
2019-05-10T01:08:39.723Z,-66
2019-05-10T01:09:38.229Z,-67
2019-05-10T01:10:38.739Z,-66
2019-05-10T01:11:38.587Z,-68
2019-05-10T01:12:36.343Z,-67
2019-05-10T01:13:35.481Z,-67
2019-05-10T01:14:34.375Z,-67
2019-05-10T01:15:32.784Z,-67
2019-05-10T01:16:33.093Z,-67
2019-05-10T01:17:31.778Z,-67
2019-05-10T01:18:29.766Z,-67
2019-05-10T01:19:27.248Z,-67
2019-05-10T01:20:31.012Z,-66
2019-05-10T01:21:30.575Z,-67
2019-05-10T01:22:29.869Z,-67
2019-05-10T01:23:28.125Z,-67
2019-05-10T01:24:26.398Z,-67
2019-05-10T01:25:34.465Z,-67
2019-05-10T01:25:34.979Z,-67
2019-05-10T01:25:35.851Z,-67
2019-05-10T01:26:27.639Z,-67
2019-05-10T01:27:25.518Z,-66
2019-05-10T01:28:23.962Z,-67
2019-05-10T01:29:22.755Z,-67
2019-05-10T01:30:23.086Z,-67
2019-05-10T01:31:20.691Z,-67
2019-05-10T01:32:22.505Z,-67
2019-05-10T01:33:21.886Z,-67
2019-05-10T01:34:26.154Z,-66
2019-05-10T01:35:29.488Z,-67
2019-05-10T01:36:33.181Z,-67
2019-05-10T01:37:30.910Z,-66
2019-05-10T01:38:28.676Z,-66
2019-05-10T01:39:26.085Z,-67
2019-05-10T01:40:24.166Z,-66
2019-05-10T01:41:22.314Z,-67
2019-05-10T01:42:28.683Z,-67
2019-05-10T01:43:26.373Z,-67
2019-05-10T01:44:27.094Z,-67
2019-05-10T01:45:34.595Z,-67
2019-05-10T01:46:38.289Z,-67
2019-05-10T01:47:36.270Z,-67
2019-05-10T01:48:33.800Z,-66
2019-05-10T01:49:33.824Z,-67
2019-05-10T01:50:32.736Z,-66
2019-05-10T01:51:30.463Z,-66
2019-05-10T01:52:28.330Z,-66
2019-05-10T01:53:29.183Z,-66
2019-05-10T01:54:27.520Z,-67
2019-05-10T01:55:25.700Z,-66
2019-05-10T01:56:30.072Z,-67
2019-05-10T01:57:33.279Z,-67
2019-05-10T01:58:38.453Z,-66
2019-05-10T01:59:36.335Z,-67
2019-05-10T02:00:35.815Z,-67
2019-05-10T02:01:43.151Z,-66
2019-05-10T02:02:40.743Z,-66
2019-05-10T02:03:38.574Z,-67
2019-05-10T02:04:38.562Z,-67
2019-05-10T02:05:37.835Z,-66
2019-05-10T02:06:36.752Z,-66
2019-05-10T02:07:34.633Z,-66
2019-05-10T02:08:34.959Z,-67
2019-05-10T02:09:34.738Z,-67
2019-05-10T02:10:32.115Z,-67
2019-05-10T02:11:37.112Z,-67
2019-05-10T02:12:35.728Z,-67
2019-05-10T02:13:37.055Z,-67
2019-05-10T02:14:42.576Z,-66
2019-05-10T02:15:41.289Z,-67
2019-05-10T02:16:47.756Z,-66
2019-05-10T02:17:45.390Z,-67
2019-05-10T02:18:45.240Z,-67
2019-05-10T02:19:42.605Z,-68
2019-05-10T02:20:42.470Z,-67
2019-05-10T02:21:48.677Z,-67
2019-05-10T02:22:46.443Z,-67
2019-05-10T02:23:45.025Z,-67
2019-05-10T02:24:43.013Z,-67
2019-05-10T02:25:41.555Z,-66
2019-05-10T02:26:39.212Z,-67
2019-05-10T02:27:38.024Z,-67
2019-05-10T02:28:40.183Z,-66
2019-05-10T02:29:40.735Z,-66
2019-05-10T02:30:39.949Z,-67
2019-05-10T02:31:44.960Z,-66
2019-05-10T02:32:42.604Z,-67
2019-05-10T02:33:40.018Z,-67
2019-05-10T02:34:37.680Z,-67
2019-05-10T02:35:39.147Z,-67
2019-05-10T02:36:36.708Z,-66
2019-05-10T02:37:34.577Z,-67
2019-05-10T02:38:32.706Z,-67
2019-05-10T02:39:30.389Z,-66
2019-05-10T02:40:30.453Z,-67
2019-05-10T02:41:33.957Z,-67
2019-05-10T02:42:32.400Z,-67
2019-05-10T02:43:30.104Z,-67
2019-05-10T02:44:27.662Z,-67
2019-05-10T02:45:25.681Z,-64
2019-05-10T02:46:25.050Z,-64
2019-05-10T02:47:28.133Z,-66
2019-05-10T02:48:31.143Z,-66
2019-05-10T02:49:28.811Z,-66
2019-05-10T02:50:28.081Z,-66
2019-05-10T02:51:26.642Z,-67
2019-05-10T02:52:25.960Z,-67
2019-05-10T02:53:23.876Z,-66
2019-05-10T02:54:21.318Z,-67
2019-05-10T02:55:28.776Z,-66
2019-05-10T02:56:29.001Z,-66
2019-05-10T02:56:29.609Z,-66
2019-05-10T02:56:30.629Z,-66
2019-05-10T02:57:12.167Z,-67
2019-05-10T02:58:15.088Z,-67
2019-05-10T02:59:11.112Z,-67
2019-05-10T03:00:09.283Z,-67
2019-05-10T03:01:07.641Z,-67
2019-05-10T03:02:07.532Z,-67
2019-05-10T03:03:11.225Z,-67
2019-05-10T03:04:11.465Z,-67
2019-05-10T03:05:08.981Z,-66
2019-05-10T03:06:10.641Z,-66
2019-05-10T03:07:08.429Z,-67
2019-05-10T03:08:07.512Z,-66
2019-05-10T03:09:05.907Z,-67
2019-05-10T03:10:03.538Z,-66
2019-05-10T03:11:01.366Z,-66
2019-05-10T03:12:02.275Z,-66
2019-05-10T03:13:00.888Z,-66
2019-05-10T03:13:59.277Z,-66
2019-05-10T03:14:59.121Z,-66
2019-05-10T03:15:58.099Z,-67
2019-05-10T03:16:58.261Z,-67
2019-05-10T03:17:56.588Z,-66
2019-05-10T03:18:59.536Z,-67
2019-05-10T03:19:57.892Z,-66
2019-05-10T03:20:56.762Z,-67
2019-05-10T03:21:55.862Z,-67
2019-05-10T03:22:55.534Z,-67
2019-05-10T03:23:53.487Z,-66
2019-05-10T03:24:52.162Z,-67
2019-05-10T03:25:49.588Z,-67
2019-05-10T03:26:53.306Z,-67
2019-05-10T03:27:51.912Z,-66
2019-05-10T03:28:52.276Z,-67
2019-05-10T03:29:52.216Z,-66
2019-05-10T03:30:52.625Z,-67
2019-05-10T03:31:54.475Z,-67
2019-05-10T03:32:53.753Z,-67
2019-05-10T03:33:56.638Z,-67
2019-05-10T03:33:57.886Z,-67
2019-05-10T03:34:53.353Z,-66
2019-05-10T03:35:57.154Z,-67
2019-05-10T03:36:57.376Z,-66
2019-05-10T03:37:55.175Z,-66
2019-05-10T03:38:52.571Z,-67
2019-05-10T03:39:51.190Z,-67
2019-05-10T03:40:50.945Z,-67
2019-05-10T03:41:50.437Z,-67
2019-05-10T03:42:54.152Z,-66
2019-05-10T03:43:54.353Z,-67
2019-05-10T03:44:55.435Z,-66
2019-05-10T03:45:54.723Z,-66
2019-05-10T03:46:52.729Z,-66
2019-05-10T03:47:50.789Z,-67
2019-05-10T03:48:52.405Z,-66
2019-05-10T03:49:49.911Z,-67
2019-05-10T03:50:49.315Z,-67
2019-05-10T03:51:50.360Z,-66
2019-05-10T03:52:54.904Z,-67
2019-05-10T03:53:53.410Z,-67
2019-05-10T03:54:50.842Z,-68
2019-05-10T03:55:51.361Z,-66
2019-05-10T03:57:09.146Z,-67
2019-05-10T03:57:10.968Z,-67
2019-05-10T03:57:12.099Z,-67
2019-05-10T03:57:51.406Z,-67
2019-05-10T03:58:55.340Z,-66
2019-05-10T03:59:53.807Z,-67
2019-05-10T04:00:52.292Z,-66
2019-05-10T04:01:52.335Z,-67
2019-05-10T04:02:51.037Z,-67
2019-05-10T04:03:48.875Z,-67
2019-05-10T04:04:46.965Z,-67
2019-05-10T04:05:55.363Z,-66
2019-05-10T04:06:53.717Z,-67
2019-05-10T04:08:00.381Z,-67
2019-05-10T04:08:59.930Z,-66
2019-05-10T04:10:02.056Z,-67
2019-05-10T04:11:01.828Z,-67
2019-05-10T04:12:05.484Z,-66
2019-05-10T04:13:03.748Z,-66
2019-05-10T04:14:02.842Z,-66
2019-05-10T04:15:00.266Z,-67
2019-05-10T04:16:04.774Z,-67
2019-05-10T04:17:04.831Z,-67
2019-05-10T04:18:04.747Z,-67
2019-05-10T04:19:02.274Z,-67
2019-05-10T04:20:01.014Z,-67
2019-05-10T04:20:58.316Z,-66
2019-05-10T04:24:01.559Z,-67
2019-05-10T04:25:03.411Z,-67
2019-05-10T04:26:05.961Z,-67
2019-05-10T04:27:08.328Z,-66
2019-05-10T04:28:09.624Z,-67
2019-05-10T04:29:09.162Z,-66
2019-05-10T04:30:07.764Z,-67
2019-05-10T04:31:11.017Z,-66
2019-05-10T04:32:10.733Z,-67
2019-05-10T04:33:08.715Z,-66
2019-05-10T04:34:08.929Z,-67
2019-05-10T04:35:08.051Z,-67
2019-05-10T04:36:05.920Z,-67
2019-05-10T04:37:07.178Z,-67
2019-05-10T04:38:07.532Z,-66
2019-05-10T04:39:07.577Z,-66
2019-05-10T04:40:07.478Z,-67
2019-05-10T04:41:05.669Z,-67
2019-05-10T04:42:06.101Z,-67
2019-05-10T04:43:04.977Z,-66
2019-05-10T04:44:08.748Z,-67
2019-05-10T04:45:08.267Z,-67
2019-05-10T04:46:08.541Z,-67
2019-05-10T04:47:06.881Z,-66
2019-05-10T04:48:08.472Z,-66
2019-05-10T04:49:06.511Z,-67
2019-05-10T04:50:05.770Z,-67
2019-05-10T04:51:04.581Z,-67
2019-05-10T04:52:02.950Z,-67
2019-05-10T04:53:05.602Z,-66
2019-05-10T04:54:09.800Z,-66
2019-05-10T04:55:21.714Z,-67
2019-05-10T04:56:23.150Z,-67
2019-05-10T04:57:30.138Z,-67
2019-05-10T04:58:28.508Z,-67
2019-05-10T04:59:28.156Z,-67
2019-05-10T05:00:28.623Z,-66
2019-05-10T05:01:28.235Z,-67
2019-05-10T05:02:27.082Z,-67
2019-05-10T05:03:37.141Z,-67
2019-05-10T05:04:35.929Z,-66
2019-05-10T05:05:37.276Z,-67
2019-05-10T05:06:38.066Z,-67
2019-05-10T05:07:38.788Z,-67
2019-05-10T05:08:39.068Z,-66
2019-05-10T05:09:41.468Z,-67
2019-05-10T05:10:39.161Z,-67
2019-05-10T05:11:37.113Z,-67
2019-05-10T05:12:34.749Z,-67
2019-05-10T05:13:33.390Z,-67
2019-05-10T05:14:31.990Z,-67
2019-05-10T05:15:30.021Z,-67
2019-05-10T05:16:29.334Z,-67
2019-05-10T05:17:31.469Z,-67
2019-05-10T05:18:29.285Z,-67
2019-05-10T05:19:26.978Z,-67
2019-05-10T05:20:26.302Z,-67
2019-05-10T05:21:25.800Z,-67
2019-05-10T05:22:24.484Z,-66
2019-05-10T05:23:23.828Z,-67
2019-05-10T05:24:25.197Z,-67
2019-05-10T05:25:23.509Z,-67
2019-05-10T05:26:21.599Z,-67
2019-05-10T05:27:19.755Z,-67
2019-05-10T05:28:23.124Z,-67
2019-05-10T05:29:21.064Z,-67
2019-05-10T05:30:19.547Z,-67
2019-05-10T05:31:19.306Z,-67
2019-05-10T05:32:23.478Z,-66
2019-05-10T05:33:21.192Z,-67
2019-05-10T05:34:21.831Z,-67
2019-05-10T05:35:20.652Z,-66
2019-05-10T05:36:19.404Z,-67
2019-05-10T05:37:17.839Z,-67
2019-05-10T05:38:15.422Z,-67
2019-05-10T05:39:14.448Z,-67
2019-05-10T05:40:12.357Z,-67
2019-05-10T05:41:10.739Z,-67
2019-05-10T05:42:11.589Z,-67
2019-05-10T05:43:10.876Z,-67
2019-05-10T05:44:08.653Z,-67
2019-05-10T05:45:15.665Z,-67
2019-05-10T05:46:16.652Z,-67
2019-05-10T05:47:22.460Z,-67
2019-05-10T05:48:21.537Z,-67
2019-05-10T05:49:18.232Z,-67
2019-05-10T05:50:19.928Z,-67
2019-05-10T05:51:23.156Z,-67
2019-05-10T05:52:22.489Z,-67
2019-05-10T05:53:22.501Z,-66
2019-05-10T05:54:25.489Z,-66
2019-05-10T05:55:23.581Z,-67
2019-05-10T05:56:21.168Z,-67
2019-05-10T05:57:22.113Z,-67
2019-05-10T05:57:27.637Z,-67
2019-05-10T05:58:27.473Z,-66
2019-05-10T05:59:30.794Z,-68
2019-05-10T06:00:30.086Z,-67
2019-05-10T06:01:29.961Z,-67
2019-05-10T06:02:44.172Z,-74
2019-05-10T06:02:45.101Z,-74
2019-05-10T06:02:46.722Z,-74
2019-05-10T06:03:36.035Z,-71
2019-05-10T06:04:40.788Z,-68
2019-05-10T06:04:46.366Z,-68
2019-05-10T06:05:37.666Z,-67
2019-05-10T06:06:41.967Z,-70
2019-05-10T06:07:40.284Z,-66
2019-05-10T06:08:38.580Z,-70
2019-05-10T06:09:39.461Z,-68
2019-05-10T06:10:38.915Z,-69
2019-05-10T06:11:39.317Z,-72
2019-05-10T06:12:36.994Z,-69
2019-05-10T06:13:36.315Z,-73
2019-05-10T06:14:34.154Z,-73
2019-05-10T06:15:32.506Z,-70
2019-05-10T06:16:31.806Z,-71
2019-05-10T06:17:31.683Z,-72
2019-05-10T06:18:29.316Z,-71
2019-05-10T06:19:29.926Z,-70
2019-05-10T06:20:25.589Z,-71
2019-05-10T06:21:26.766Z,-64
2019-05-10T06:22:23.675Z,-67
2019-05-10T06:23:29.142Z,-70
2019-05-10T06:23:35.092Z,-70
2019-05-10T06:24:24.035Z,-66
2019-05-10T06:25:37.726Z,-71
2019-05-10T06:25:38.914Z,-71
2019-05-10T06:25:39.560Z,-71
2019-05-10T06:26:28.415Z,-67
2019-05-10T06:26:28.690Z,-67
2019-05-10T06:27:23.479Z,-71
2019-05-10T06:28:57.081Z,-69
2019-05-10T06:28:57.446Z,-69
2019-05-10T06:29:33.616Z,-71
2019-05-10T06:30:32.962Z,-68
2019-05-10T06:31:40.494Z,-67
2019-05-10T06:32:39.017Z,-67
2019-05-10T06:33:45.019Z,-66
2019-05-10T06:33:46.868Z,-66
2019-05-10T06:34:41.541Z,-69
2019-05-10T06:35:41.402Z,-67
2019-05-10T06:36:42.957Z,-69
2019-05-10T06:37:42.037Z,-67
2019-05-10T06:38:42.055Z,-67
2019-05-10T06:39:42.610Z,-68
2019-05-10T06:40:47.127Z,-68
2019-05-10T06:41:42.249Z,-67
2019-05-10T06:42:42.818Z,-67
2019-05-10T06:43:45.573Z,-67
2019-05-10T06:43:51.346Z,-67
2019-05-10T06:44:43.386Z,-74
2019-05-10T06:45:41.375Z,-69
2019-05-10T06:46:42.636Z,-75
2019-05-10T06:47:41.855Z,-67
2019-05-10T06:48:38.755Z,-67
2019-05-10T06:49:41.700Z,-67
2019-05-10T06:49:50.720Z,-67
2019-05-10T06:49:52.145Z,-67
2019-05-10T06:50:37.272Z,-67
2019-05-10T06:51:42.722Z,-67
2019-05-10T06:51:49.213Z,-67
2019-05-10T06:51:50.957Z,-67
2019-05-10T06:52:40.213Z,-67
2019-05-10T06:53:42.182Z,-67
2019-05-10T06:53:51.932Z,-67
2019-05-10T06:53:52.641Z,-67
2019-05-10T06:54:39.184Z,-68
2019-05-10T06:55:37.281Z,-67
2019-05-10T06:56:35.693Z,-66
2019-05-10T06:57:36.439Z,-67
2019-05-10T06:58:38.515Z,-67
2019-05-10T06:59:36.449Z,-67
2019-05-10T07:00:38.169Z,-67
2019-05-10T07:00:45.027Z,-67
2019-05-10T07:01:38.186Z,-67
2019-05-10T07:01:45.129Z,-67
2019-05-10T07:01:51.500Z,-67
2019-05-10T07:02:34.632Z,-67
2019-05-10T07:03:33.805Z,-68
2019-05-10T07:04:36.074Z,-67
2019-05-10T07:04:40.881Z,-67
2019-05-10T07:05:34.609Z,-67
2019-05-10T07:06:32.654Z,-67
2019-05-10T07:07:43.174Z,-68
2019-05-10T07:07:44.061Z,-68
2019-05-10T07:07:44.734Z,-68
2019-05-10T07:08:43.780Z,-67
2019-05-10T07:08:44.292Z,-67
2019-05-10T07:08:45.771Z,-67
2019-05-10T07:10:00.340Z,-67
2019-05-10T07:10:01.348Z,-67
2019-05-10T07:10:33.934Z,-67
2019-05-10T07:11:34.228Z,-67
2019-05-10T07:12:33.125Z,-67
2019-05-10T07:13:31.798Z,-67
2019-05-10T07:14:30.111Z,-67
2019-05-10T07:15:35.795Z,-67
2019-05-10T07:15:42.047Z,-67
2019-05-10T07:16:36.274Z,-68
2019-05-10T07:17:45.631Z,-68
2019-05-10T07:17:46.935Z,-68
2019-05-10T07:18:40.903Z,-67
2019-05-10T07:19:41.978Z,-67
2019-05-10T07:19:53.532Z,-67
2019-05-10T07:19:54.768Z,-67
2019-05-10T07:20:43.129Z,-68
2019-05-10T07:21:44.304Z,-68
2019-05-10T07:21:51.092Z,-68
2019-05-10T07:22:40.954Z,-69
2019-05-10T07:23:44.719Z,-67
2019-05-10T07:23:47.741Z,-67
2019-05-10T07:24:40.664Z,-67
2019-05-10T07:25:43.854Z,-67
2019-05-10T07:25:46.735Z,-67
2019-05-10T07:26:37.987Z,-67
2019-05-10T07:27:38.172Z,-67
2019-05-10T07:28:34.208Z,-67
2019-05-10T07:29:43.699Z,-68
2019-05-10T07:29:45.826Z,-68
2019-05-10T07:30:35.952Z,-67
2019-05-10T07:31:35.546Z,-67
2019-05-10T07:32:36.843Z,-67
2019-05-10T07:33:37.249Z,-67
2019-05-10T07:34:39.818Z,-68
2019-05-10T07:35:38.834Z,-67
2019-05-10T07:36:46.272Z,-68
2019-05-10T07:37:47.580Z,-68
2019-05-10T07:37:53.092Z,-68
2019-05-10T07:38:56.052Z,-67
2019-05-10T07:39:56.342Z,-67
2019-05-10T07:40:55.072Z,-68
2019-05-10T07:42:00.433Z,-68
2019-05-10T07:42:06.493Z,-68
2019-05-10T07:42:09.084Z,-68
2019-05-10T07:42:57.026Z,-68
2019-05-10T07:44:00.821Z,-66
2019-05-10T07:44:07.682Z,-66
2019-05-10T07:44:08.448Z,-66
2019-05-10T07:45:01.277Z,-66
2019-05-10T07:46:06.236Z,-67
2019-05-10T07:46:06.815Z,-67
2019-05-10T07:46:58.999Z,-69
2019-05-10T07:48:02.281Z,-67
2019-05-10T07:48:08.384Z,-67
2019-05-10T07:48:10.385Z,-67
2019-05-10T07:49:02.389Z,-69
2019-05-10T07:50:03.987Z,-68
2019-05-10T07:50:09.660Z,-68
2019-05-10T07:51:00.921Z,-68
2019-05-10T07:52:04.507Z,-68
2019-05-10T07:53:02.136Z,-67
2019-05-10T07:54:04.802Z,-68
2019-05-10T07:55:00.938Z,-68
2019-05-10T07:56:08.859Z,-68
2019-05-10T07:57:06.546Z,-68
2019-05-10T07:58:07.019Z,-68
2019-05-10T07:59:04.843Z,-68
2019-05-10T08:00:05.988Z,-68
2019-05-10T08:01:02.637Z,-69
2019-05-10T08:02:12.239Z,-68
2019-05-10T08:02:12.872Z,-68
2019-05-10T08:03:15.261Z,-68
2019-05-10T08:03:16.144Z,-68
2019-05-10T08:03:18.827Z,-68
2019-05-10T08:04:09.355Z,-68
2019-05-10T08:05:13.704Z,-68
2019-05-10T08:05:15.468Z,-68
2019-05-10T08:06:09.821Z,-69
2019-05-10T08:07:14.667Z,-68
2019-05-10T08:08:19.279Z,-68
2019-05-10T08:09:19.221Z,-68
2019-05-10T08:10:15.296Z,-68
2019-05-10T08:11:13.454Z,-68
2019-05-10T08:12:13.187Z,-67
2019-05-10T08:13:15.411Z,-67
2019-05-10T08:13:21.144Z,-67
2019-05-10T08:13:25.135Z,-67
2019-05-10T08:14:19.275Z,-68
2019-05-10T08:15:19.968Z,-67
2019-05-10T08:16:23.007Z,-68
2019-05-10T08:17:19.274Z,-68
2019-05-10T08:18:21.126Z,-67
2019-05-10T08:18:25.351Z,-67
2019-05-10T08:19:19.394Z,-68
2019-05-10T08:20:33.319Z,-65
2019-05-10T08:20:41.080Z,-65
2019-05-10T08:20:43.652Z,-65
2019-05-10T08:21:23.919Z,-70
2019-05-10T08:21:26.471Z,-70
2019-05-10T08:22:22.827Z,-71
2019-05-10T08:23:23.698Z,-70
2019-05-10T08:23:28.064Z,-70
2019-05-10T08:24:22.239Z,-71
2019-05-10T08:25:22.465Z,-71
2019-05-10T08:26:22.485Z,-71
2019-05-10T08:26:24.935Z,-71
2019-05-10T08:27:23.108Z,-67
2019-05-10T08:28:27.959Z,-67
2019-05-10T08:28:36.064Z,-67
2019-05-10T08:28:39.781Z,-67
2019-05-10T08:29:29.067Z,-67
2019-05-10T08:30:29.272Z,-71
2019-05-10T08:31:33.825Z,-74
2019-05-10T08:31:40.399Z,-74
2019-05-10T08:31:40.530Z,-74
2019-05-10T08:32:29.854Z,-71
2019-05-10T08:32:34.514Z,-71
2019-05-10T08:33:25.647Z,-71
2019-05-10T08:34:28.955Z,-71
2019-05-10T08:34:34.537Z,-71
2019-05-10T08:34:35.644Z,-71
2019-05-10T08:35:25.908Z,-72
2019-05-10T08:36:32.196Z,-78
2019-05-10T08:37:36.179Z,-70
2019-05-10T08:37:37.736Z,-70
2019-05-10T08:38:31.802Z,-68
2019-05-10T08:39:27.669Z,-67
2019-05-10T08:40:34.220Z,-69
2019-05-10T08:40:36.874Z,-69
2019-05-10T08:40:37.954Z,-69
2019-05-10T08:41:29.290Z,-70
2019-05-10T08:42:43.442Z,-70
2019-05-10T08:42:44.236Z,-70
2019-05-10T08:42:45.282Z,-70
2019-05-10T08:43:38.692Z,-67
2019-05-10T08:43:39.022Z,-67
2019-05-10T08:44:29.594Z,-68
2019-05-10T08:45:27.606Z,-69
2019-05-10T08:46:37.299Z,-67
2019-05-10T08:46:40.215Z,-67
2019-05-10T08:46:41.264Z,-67
2019-05-10T08:47:27.864Z,-65
2019-05-10T08:48:28.302Z,-66
2019-05-10T08:49:31.122Z,-66
2019-05-10T08:49:35.515Z,-66
2019-05-10T08:49:44.063Z,-66
2019-05-10T08:50:42.617Z,-71
2019-05-10T08:50:48.414Z,-71
2019-05-10T08:50:49.372Z,-71
2019-05-10T08:51:27.896Z,-73
2019-05-10T08:52:30.924Z,-68
2019-05-10T08:52:33.976Z,-68
2019-05-10T08:53:24.771Z,-71
2019-05-10T08:54:26.407Z,-65
2019-05-10T08:55:23.853Z,-68
2019-05-10T08:56:26.569Z,-67
2019-05-10T08:57:26.681Z,-66
2019-05-10T08:58:31.353Z,-69
2019-05-10T08:58:35.430Z,-69
2019-05-10T08:58:37.319Z,-69
2019-05-10T08:59:30.810Z,-71
2019-05-10T09:00:41.686Z,-72
2019-05-10T09:00:45.680Z,-72
2019-05-10T09:00:49.338Z,-72
2019-05-10T09:01:30.662Z,-67
2019-05-10T09:01:38.773Z,-67
2019-05-10T09:01:44.427Z,-67
2019-05-10T09:02:30.143Z,-70
2019-05-10T09:03:27.282Z,-70
2019-05-10T09:04:25.409Z,-69
2019-05-10T09:05:28.941Z,-66
2019-05-10T09:05:31.172Z,-66
2019-05-10T09:06:24.259Z,-71
2019-05-10T09:07:24.635Z,-70
2019-05-10T09:08:28.517Z,-67
2019-05-10T09:08:32.548Z,-67
2019-05-10T09:09:26.320Z,-67
2019-05-10T09:10:29.071Z,-66
2019-05-10T09:11:27.267Z,-67
2019-05-10T09:12:25.477Z,-66
2019-05-10T09:13:28.678Z,-66
2019-05-10T09:13:37.256Z,-66
2019-05-10T09:13:40.966Z,-66
2019-05-10T09:14:28.285Z,-70
2019-05-10T09:15:30.288Z,-66
2019-05-10T09:16:34.872Z,-67
2019-05-10T09:16:39.895Z,-67
2019-05-10T09:16:43.715Z,-67
2019-05-10T09:17:34.976Z,-69
2019-05-10T09:18:38.141Z,-65
2019-05-10T09:18:46.105Z,-65
2019-05-10T09:18:50.313Z,-65
2019-05-10T09:19:40.692Z,-63
2019-05-10T09:19:43.396Z,-63
2019-05-10T09:20:33.876Z,-64
2019-05-10T09:21:41.296Z,-66
2019-05-10T09:21:49.321Z,-66
2019-05-10T09:21:49.675Z,-66
2019-05-10T09:22:42.423Z,-67
2019-05-10T09:23:39.458Z,-68
2019-05-10T09:24:48.121Z,-69
2019-05-10T09:24:48.576Z,-69
2019-05-10T09:25:42.587Z,-71
2019-05-10T09:26:47.053Z,-72
2019-05-10T09:26:52.777Z,-72
2019-05-10T09:26:56.859Z,-72
2019-05-10T09:27:43.476Z,-66
2019-05-10T09:28:42.120Z,-72
2019-05-10T09:29:40.275Z,-65
2019-05-10T09:30:54.151Z,-66
2019-05-10T09:30:56.907Z,-66
2019-05-10T09:30:59.986Z,-66
2019-05-10T09:31:45.920Z,-67
2019-05-10T09:31:50.658Z,-67
2019-05-10T09:32:55.627Z,-66
2019-05-10T09:33:56.707Z,-66
2019-05-10T09:34:59.876Z,-66
2019-05-10T09:35:07.527Z,-66
2019-05-10T09:35:09.366Z,-66
2019-05-10T09:35:55.302Z,-66
2019-05-10T09:36:36.199Z,-66
2019-05-10T09:37:33.210Z,-66
2019-05-10T09:38:34.886Z,-66
2019-05-10T09:38:39.211Z,-66
2019-05-10T09:39:32.107Z,-66
2019-05-10T09:40:28.750Z,-66
2019-05-10T09:41:38.270Z,-66
2019-05-10T09:42:40.013Z,-66
2019-05-10T09:42:42.679Z,-66
2019-05-10T09:43:32.819Z,-67
2019-05-10T09:44:32.942Z,-66
2019-05-10T09:45:33.047Z,-66
2019-05-10T09:46:32.483Z,-66
2019-05-10T09:47:29.950Z,-66
2019-05-10T09:48:35.229Z,-66
2019-05-10T09:49:38.465Z,-66
2019-05-10T09:50:46.857Z,-66
2019-05-10T09:50:47.361Z,-66
2019-05-10T09:51:39.066Z,-66
2019-05-10T09:52:37.207Z,-66
2019-05-10T09:53:39.192Z,-66
2019-05-10T09:54:38.820Z,-66
2019-05-10T09:55:37.470Z,-66
2019-05-10T09:56:41.348Z,-66
2019-05-10T09:56:44.231Z,-66
2019-05-10T09:57:38.001Z,-66
2019-05-10T09:58:38.688Z,-65
2019-05-10T09:59:34.236Z,-66
2019-05-10T10:00:33.363Z,-66
2019-05-10T10:01:31.137Z,-66
2019-05-10T10:02:33.672Z,-66
2019-05-10T10:02:34.085Z,-66
2019-05-10T10:03:30.058Z,-66
2019-05-10T10:03:39.894Z,-66
2019-05-10T10:03:43.030Z,-66
2019-05-10T10:04:28.452Z,-66
2019-05-10T10:05:27.200Z,-66
2019-05-10T10:06:29.801Z,-66
2019-05-10T10:07:28.193Z,-66
2019-05-10T10:07:33.319Z,-66
2019-05-10T10:08:24.857Z,-66
2019-05-10T10:09:24.590Z,-66
2019-05-10T10:09:33.747Z,-66
2019-05-10T10:09:41.952Z,-66
2019-05-10T10:10:30.139Z,-66
2019-05-10T10:10:31.967Z,-66
2019-05-10T10:11:27.818Z,-66
2019-05-10T10:12:25.602Z,-66
2019-05-10T10:13:38.961Z,-66
2019-05-10T10:13:39.596Z,-66
2019-05-10T10:13:40.167Z,-66
2019-05-10T10:14:39.469Z,-66
2019-05-10T10:14:43.161Z,-66
2019-05-10T10:15:37.341Z,-66
2019-05-10T10:16:39.370Z,-67
2019-05-10T10:17:44.161Z,-67
2019-05-10T10:18:43.151Z,-60
2019-05-10T10:19:41.852Z,-58
2019-05-10T10:20:47.887Z,-61
2019-05-10T10:21:47.586Z,-61
2019-05-10T10:22:52.645Z,-58
2019-05-10T10:22:54.578Z,-58
2019-05-10T10:23:46.638Z,-58
2019-05-10T10:24:55.243Z,-63
2019-05-10T10:25:00.494Z,-63
2019-05-10T10:25:50.366Z,-61
2019-05-10T10:26:53.843Z,-61
2019-05-10T10:27:57.396Z,-62
2019-05-10T10:28:57.814Z,-61
2019-05-10T10:29:53.942Z,-61
2019-05-10T10:31:05.290Z,-63
2019-05-10T10:31:08.272Z,-63
2019-05-10T10:33:31.700Z,-62
2019-05-10T10:36:04.383Z,-58
2019-05-10T10:36:07.742Z,-58
2019-05-10T10:36:10.322Z,-58
2019-05-10T10:36:54.203Z,-60
2019-05-10T10:38:03.088Z,-58
2019-05-10T10:38:05.099Z,-58
2019-05-10T10:39:00.149Z,-58
2019-05-10T10:40:09.355Z,-59
2019-05-10T10:41:11.082Z,-60
2019-05-10T10:42:13.322Z,-58
2019-05-10T10:43:11.694Z,-59
2019-05-10T10:44:12.184Z,-58
2019-05-10T10:45:11.225Z,-58
2019-05-10T10:46:12.715Z,-58
2019-05-10T10:47:27.622Z,-61
2019-05-10T10:47:32.016Z,-61
2019-05-10T10:48:23.552Z,-57
2019-05-10T10:49:28.054Z,-57
2019-05-10T10:49:31.886Z,-57
2019-05-10T10:50:22.483Z,-57
2019-05-10T10:51:21.696Z,-58
2019-05-10T10:52:19.729Z,-57
2019-05-10T10:53:17.992Z,-57
2019-05-10T10:54:17.734Z,-57
2019-05-10T10:55:15.691Z,-61
2019-05-10T10:56:20.495Z,-58
2019-05-10T10:57:18.580Z,-60
2019-05-10T10:58:18.541Z,-56
2019-05-10T10:59:15.059Z,-56
2019-05-10T11:00:17.589Z,-55
2019-05-10T11:00:23.244Z,-55
2019-05-10T11:01:21.714Z,-58
2019-05-10T11:01:25.226Z,-58
2019-05-10T11:01:25.675Z,-58
2019-05-10T11:02:32.054Z,-51
2019-05-10T11:02:32.763Z,-51
2019-05-10T11:02:34.324Z,-51
2019-05-10T11:03:24.094Z,-56
2019-05-10T11:03:30.169Z,-56
2019-05-10T11:04:22.373Z,-56
2019-05-10T11:05:24.690Z,-56
2019-05-10T11:06:23.345Z,-54
2019-05-10T11:07:23.281Z,-52
2019-05-10T11:08:25.473Z,-52
2019-05-10T11:09:25.735Z,-52
2019-05-10T11:10:23.912Z,-53
2019-05-10T11:11:22.375Z,-52
2019-05-10T11:12:23.984Z,-52
2019-05-10T11:13:39.895Z,-52
2019-05-10T11:13:41.418Z,-52
2019-05-10T11:13:41.603Z,-52
2019-05-10T11:14:22.030Z,-53
2019-05-10T11:15:27.635Z,-53
2019-05-10T11:15:30.216Z,-53
2019-05-10T11:15:35.892Z,-53
2019-05-10T11:16:22.403Z,-52
2019-05-10T11:17:20.816Z,-52
2019-05-10T11:18:21.524Z,-55
2019-05-10T11:19:22.923Z,-52
2019-05-10T11:20:24.137Z,-53
2019-05-10T11:21:28.481Z,-52
2019-05-10T11:21:31.197Z,-52
2019-05-10T11:22:27.585Z,-53
2019-05-10T11:23:34.116Z,-52
2019-05-10T11:23:36.674Z,-52
2019-05-10T11:23:39.203Z,-52
2019-05-10T11:24:26.395Z,-52
2019-05-10T11:25:30.395Z,-53
2019-05-10T11:26:42.797Z,-52
2019-05-10T11:27:41.507Z,-52
2019-05-10T11:28:47.443Z,-52
2019-05-10T11:29:46.798Z,-53
2019-05-10T11:30:45.848Z,-52